Detall de PIREP

Printer-friendly versionPDF version

[2014/04/26 08:08:00]
Flight IATA:CT1060
Pilot Number:012
Company ICAO:CAT
Aircraft Type:B763/F
PAX:263
Departing Airport: LFMP
Destination Airport: LEAL
Alternate Airport:LEVC
Online: VATSIM
Route:BGR UN855 POS UL129 LULAK UM603 GERVU
Flight Level:F330
No Slew and time accel
No pause
Crash detect
Detect pilot in Cockpit between each 30 and 45 minutes
08:08 Zero fuel Weight: 248844 Lbs, Fuel Weight: 31234 Lbs
08:08 VATSIM:LFMP 260730Z 26005KT 220V290 CAVOK 15/03 Q1014 NOSIG
08:08 VATSIM:LEAL 260730Z 29017KT 250V310 9999 FEW050 19/05 Q1018 NOSIG
08:08 ALMOGAVERS ROUTE
08:09 Parking Brakes off
08:13 Take-off
08:13 Take off Weight: 278811 Lbs
08:13 Wind: 258º @ 005 Knots Heading: 326º
08:13 POS N42º 44´ 47´´ E002º 52´ 04´´
08:14 Gear Up: 170 Knots
08:14 Flaps:2 at 171 Knots
08:15 Flaps:1 at 207 Knots
08:15 Flaps:0 at 210 Knots
08:25 TOC
08:25 Fuel Weight: 24576 Lb
08:29 Wind:318º@051 Knots Heading: 186º Ground Speed: 503 Knots Altitude 33051 ft
08:44 Wind:320º@046 Knots Heading: 258º Ground Speed: 452 Knots Altitude 33087 ft
08:53 TOD
08:53 Fuel Weight: 20176 Lb
08:59 Wind:314º@035 Knots Heading: 242º Ground Speed: 376 Knots Altitude 16023 ft
09:05 Flaps:1 at 229 Knots
09:10 Flaps:2 at 225 Knots
09:11 Flaps:3 at 194 Knots
09:11 Gear Down: 194 Knots
09:11 Flaps:4 at 159 Knots
09:12 Flaps:5 at 150 Knots
09:12 Flaps:6 at 152 Knots
09:14 Wind:280º@014 Knots Heading: 290º Ground Speed: 131 Knots Altitude 816 ft
09:15 TouchDown:Rate -276 ft/min Speed: 128 Knots
09:15 VATSIM:LEAL 260830Z 28014KT 250V320 9999 FEW050 22/05 Q1018 NOSIG
09:15 Land
09:15 Wind:286º@014 Knots
09:15 Heading: 278º
09:15 Flight Duration: 01:02
09:15 Landing Weight: 266716 Lbs
09:15 POS N38º 16´ 55´´ W000º 33´ 27´´
09:17 Parking brakes on
09:17 Block to Block Duration: 01:08
09:17 Final Fuel: 17436 Lbls
09:17 Spent Fuel: 13798 Lbls
09:17 Flight Length: 400 NM
09:17 TOD Land Length: 104 NM

Exportar CSV

Powered by Drupal - Modified by Danger4k